Time;durP1;ratioP1;P1;durP2;ratioP2;P2;SDS_P1;SDS_P2;PMS_P1;PMS_P2;Temp;Humidity;BMP_temperature;BMP_pressure;BME280_temperature;BME280_humidity;BME280_pressure;Samples;Min_cycle;Max_cycle;Signal;HPM_P1;HPM_P2
2021/12/01 00:00:22;;;;;;;76.40;27.30;;;9.00;99.90;;;;;;5000668;28;20098;-75
2021/12/01 00:02:53;;;;;;;78.65;27.73;;;8.90;99.90;;;;;;5000388;28;20048;-76
2021/12/01 00:05:24;;;;;;;69.30;27.25;;;8.90;99.90;;;;;;5014081;28;20043;-78
2021/12/01 00:07:53;;;;;;;50.35;25.40;;;8.90;99.90;;;;;;5019029;28;20096;-76
2021/12/01 00:10:21;;;;;;;57.88;25.98;;;8.90;99.90;;;;;;5013112;28;20048;-76
2021/12/01 00:12:48;;;;;;;46.22;26.42;;;8.90;99.90;;;;;;5019278;28;20140;-78
2021/12/01 00:15:13;;;;;;;61.13;26.65;;;8.90;99.90;;;;;;5019552;28;20040;-77
2021/12/01 00:17:39;;;;;;;52.50;26.92;;;8.90;99.90;;;;;;5034644;28;20400;-76
2021/12/01 00:20:15;;;;;;;50.60;26.80;;;8.90;99.90;;;;;;5016642;28;20485;-76
2021/12/01 00:22:43;;;;;;;56.00;27.42;;;8.90;99.90;;;;;;5000351;28;20040;-77
2021/12/01 00:25:10;;;;;;;54.10;27.70;;;8.90;99.90;;;;;;5016004;28;20048;-76
2021/12/01 00:27:37;;;;;;;67.25;28.08;;;8.90;99.90;;;;;;4999083;28;20037;-77
2021/12/01 00:30:04;;;;;;;50.78;27.60;;;8.90;99.90;;;;;;5017065;28;20386;-77
2021/12/01 00:32:30;;;;;;;51.55;27.73;;;8.90;99.90;;;;;;5015155;28;20029;-77
2021/12/01 00:34:59;;;;;;;47.60;28.52;;;8.90;99.90;;;;;;5015237;28;20041;-77
2021/12/01 00:37:25;;;;;;;47.10;27.60;;;9.00;99.90;;;;;;5013432;28;20041;-77
2021/12/01 00:39:50;;;;;;;52.10;27.58;;;8.90;99.90;;;;;;5032991;28;20162;-77
2021/12/01 00:42:18;;;;;;;46.53;26.65;;;8.90;99.90;;;;;;5015392;28;20044;-77
2021/12/01 00:44:47;;;;;;;47.38;26.88;;;9.00;99.90;;;;;;4998821;28;20421;-77
2021/12/01 00:47:14;;;;;;;54.35;27.00;;;8.90;99.90;;;;;;5015311;28;20053;-77
2021/12/01 00:49:43;;;;;;;46.55;27.15;;;8.90;99.90;;;;;;5012692;28;20404;-77
2021/12/01 00:52:09;;;;;;;47.95;26.45;;;8.90;99.90;;;;;;5016950;28;20126;-77
2021/12/01 00:54:35;;;;;;;45.03;25.65;;;9.00;99.90;;;;;;5035065;28;20472;-77
2021/12/01 00:57:01;;;;;;;49.65;26.95;;;8.90;99.90;;;;;;5009158;28;20406;-76
2021/12/01 00:59:27;;;;;;;48.45;25.13;;;9.00;99.90;;;;;;5027929;28;20036;-77
2021/12/01 01:01:53;;;;;;;45.55;23.17;;;9.00;99.90;;;;;;5004524;28;20121;-76
2021/12/01 01:04:19;;;;;;;40.58;21.58;;;9.00;99.90;;;;;;4998695;28;20046;-77
2021/12/01 01:06:45;;;;;;;47.40;22.15;;;9.00;99.90;;;;;;4998677;28;20132;-76
2021/12/01 01:09:14;;;;;;;53.65;22.30;;;9.00;99.90;;;;;;5015495;28;20042;-76
2021/12/01 01:17:18;;;;;;;55.08;20.23;;;9.10;99.90;;;;;;5034771;28;20061;-77
2021/12/01 01:19:45;;;;;;;35.22;17.85;;;9.10;99.90;;;;;;5013252;28;20523;-77
2021/12/01 01:22:11;;;;;;;35.70;18.15;;;9.10;99.90;;;;;;5034485;28;20224;-77
2021/12/01 01:24:39;;;;;;;29.23;15.80;;;9.10;99.90;;;;;;5011882;28;20529;-76
2021/12/01 01:27:06;;;;;;;26.67;14.77;;;9.10;99.90;;;;;;4997944;28;20137;-77
2021/12/01 01:29:36;;;;;;;36.55;14.77;;;9.10;99.90;;;;;;5010036;28;20044;-77
2021/12/01 01:32:02;;;;;;;31.88;13.88;;;9.10;99.90;;;;;;5017745;28;20576;-77
2021/12/01 01:34:28;;;;;;;27.23;12.38;;;9.10;99.90;;;;;;5014779;28;20040;-77
2021/12/01 01:36:56;;;;;;;23.83;12.07;;;9.10;99.90;;;;;;5000109;28;20518;-76
2021/12/01 01:39:28;;;;;;;20.92;11.82;;;9.10;99.90;;;;;;4998535;28;20128;-76
2021/12/01 01:41:56;;;;;;;22.60;12.13;;;9.10;99.90;;;;;;4998442;28;20050;-79
2021/12/01 01:44:25;;;;;;;24.98;11.50;;;9.10;99.90;;;;;;4999636;28;20073;-79
2021/12/01 01:46:51;;;;;;;24.77;11.60;;;9.20;99.90;;;;;;4999603;28;20079;-78
2021/12/01 01:49:23;;;;;;;19.63;11.73;;;9.20;99.90;;;;;;5001799;28;20042;-78
2021/12/01 01:51:49;;;;;;;25.83;12.02;;;9.20;99.90;;;;;;4999564;28;20037;-78
2021/12/01 01:54:22;;;;;;;19.27;10.70;;;9.20;99.90;;;;;;5015342;28;20128;-78
2021/12/01 01:56:47;;;;;;;17.55;10.85;;;9.20;99.90;;;;;;5022534;28;20155;-78
2021/12/01 01:59:16;;;;;;;21.35;11.27;;;9.20;99.90;;;;;;5010398;28;20124;-78
2021/12/01 02:01:44;;;;;;;23.67;11.80;;;9.30;99.90;;;;;;5025481;28;20052;-78
2021/12/01 02:04:15;;;;;;;17.35;10.48;;;9.30;99.90;;;;;;5018689;28;20041;-78
2021/12/01 02:06:45;;;;;;;22.40;11.02;;;9.30;99.90;;;;;;5019389;28;20480;-79
2021/12/01 02:09:22;;;;;;;21.40;10.85;;;9.30;99.90;;;;;;5017226;28;20099;-78
2021/12/01 02:11:55;;;;;;;22.95;11.60;;;9.30;99.90;;;;;;5002958;28;20170;-78
2021/12/01 02:14:26;;;;;;;22.40;11.88;;;9.30;99.90;;;;;;5014797;28;20056;-78
2021/12/01 02:16:52;;;;;;;22.83;12.30;;;9.30;99.90;;;;;;5033410;28;20074;-78
2021/12/01 02:19:18;;;;;;;28.92;13.45;;;9.30;99.90;;;;;;5007793;28;20452;-80
2021/12/01 02:21:44;;;;;;;26.15;12.75;;;9.30;99.90;;;;;;4997464;28;20048;-77
2021/12/01 02:24:13;;;;;;;29.52;12.60;;;9.30;99.90;;;;;;4997710;28;20408;-74
2021/12/01 02:26:44;;;;;;;24.95;12.13;;;9.30;99.90;;;;;;4999777;28;20045;-75
2021/12/01 02:29:13;;;;;;;24.63;11.40;;;9.40;99.90;;;;;;5007484;28;20528;-75
2021/12/01 02:31:39;;;;;;;30.23;11.27;;;9.30;99.90;;;;;;5035529;28;20040;-74
2021/12/01 02:34:11;;;;;;;17.85;9.70;;;9.40;99.90;;;;;;5020235;28;20057;-76
2021/12/01 02:36:38;;;;;;;20.23;10.20;;;9.40;99.90;;;;;;5020577;28;20041;-78
2021/12/01 02:39:08;;;;;;;19.80;9.68;;;9.40;99.90;;;;;;5019231;28;20041;-75
2021/12/01 02:41:35;;;;;;;19.85;9.27;;;9.50;99.90;;;;;;5002302;28;20159;-75
2021/12/01 02:44:05;;;;;;;18.42;7.90;;;9.40;99.90;;;;;;5001186;28;20400;-75
2021/12/01 02:46:32;;;;;;;16.45;7.30;;;9.40;99.90;;;;;;5002163;28;20529;-74
2021/12/01 02:48:58;;;;;;;17.48;7.60;;;9.40;99.90;;;;;;5008957;28;20033;-75
2021/12/01 02:51:28;;;;;;;12.93;6.57;;;9.40;99.90;;;;;;5020278;28;20048;-75
2021/12/01 02:53:54;;;;;;;10.35;5.55;;;9.50;99.90;;;;;;5020567;28;20044;-75
2021/12/01 02:56:24;;;;;;;9.35;5.05;;;9.50;99.90;;;;;;5019830;28;20041;-75
2021/12/01 02:58:50;;;;;;;7.45;4.97;;;9.40;99.90;;;;;;5001469;28;20052;-75
2021/12/01 03:01:20;;;;;;;6.80;3.78;;;9.40;99.90;;;;;;5016968;28;20088;-75
2021/12/01 03:03:46;;;;;;;7.22;3.13;;;9.40;99.90;;;;;;5018089;28;20058;-76
2021/12/01 03:06:12;;;;;;;8.98;3.03;;;9.50;99.90;;;;;;5000677;28;20128;-75
2021/12/01 03:08:42;;;;;;;7.47;2.80;;;9.40;99.90;;;;;;5020386;28;20037;-77
2021/12/01 03:11:10;;;;;;;11.30;2.83;;;9.30;99.90;;;;;;5018418;28;20037;-76
2021/12/01 03:13:36;;;;;;;10.85;3.53;;;9.30;99.90;;;;;;5020635;28;20045;-78
2021/12/01 03:16:02;;;;;;;10.88;4.13;;;9.30;99.90;;;;;;5023350;28;20090;-79
2021/12/01 03:18:28;;;;;;;7.43;3.75;;;9.30;99.90;;;;;;5018658;28;20128;-77
2021/12/01 03:20:55;;;;;;;6.50;3.28;;;9.30;99.90;;;;;;5053706;23;20069;-75
2021/12/01 03:23:22;;;;;;;7.45;3.72;;;9.30;99.90;;;;;;5033083;28;20042;-76
2021/12/01 03:25:48;;;;;;;7.38;3.30;;;9.30;99.90;;;;;;5016624;28;20158;-75
2021/12/01 03:28:14;;;;;;;5.80;3.30;;;9.30;99.90;;;;;;5038099;28;20505;-76
2021/12/01 03:30:41;;;;;;;5.47;3.40;;;9.30;99.90;;;;;;5049240;28;20083;-75
2021/12/01 03:33:12;;;;;;;7.50;3.50;;;9.30;99.90;;;;;;5016457;28;20041;-76
2021/12/01 03:35:41;;;;;;;7.10;3.30;;;9.30;99.90;;;;;;5049263;28;20033;-75
2021/12/01 03:38:08;;;;;;;4.90;2.72;;;9.30;99.90;;;;;;5031906;28;20096;-75
2021/12/01 03:40:34;;;;;;;5.20;3.42;;;9.30;99.90;;;;;;5034179;28;20124;-76
2021/12/01 03:42:59;;;;;;;4.70;3.20;;;9.30;99.90;;;;;;5033009;28;20033;-75
2021/12/01 03:45:25;;;;;;;6.07;3.45;;;9.30;99.90;;;;;;5034831;28;20531;-75
2021/12/01 03:47:51;;;;;;;6.75;3.30;;;9.30;99.90;;;;;;5052574;28;20095;-75
2021/12/01 03:50:17;;;;;;;5.85;3.13;;;9.30;99.90;;;;;;5036293;28;20037;-75
2021/12/01 03:52:42;;;;;;;5.78;3.05;;;9.30;99.90;;;;;;5032222;28;20044;-75
2021/12/01 03:55:09;;;;;;;6.38;3.45;;;9.30;99.90;;;;;;5032935;28;20036;-75
2021/12/01 03:57:35;;;;;;;6.57;3.42;;;9.30;99.90;;;;;;5032835;28;20544;-76
2021/12/01 04:00:04;;;;;;;6.53;3.90;;;9.30;99.90;;;;;;5033713;28;20333;-75
2021/12/01 04:02:30;;;;;;;6.05;3.83;;;9.30;99.90;;;;;;5046546;28;20465;-75
2021/12/01 04:04:55;;;;;;;8.18;4.03;;;9.30;99.90;;;;;;5015615;28;20080;-74
2021/12/01 04:07:21;;;;;;;5.75;3.75;;;9.30;99.90;;;;;;5048681;28;20059;-76
2021/12/01 04:09:46;;;;;;;4.63;3.08;;;9.20;99.90;;;;;;5033083;28;20033;-76
2021/12/01 04:12:12;;;;;;;6.35;3.42;;;9.20;99.90;;;;;;5033293;28;20071;-75
2021/12/01 04:14:38;;;;;;;6.22;3.22;;;9.20;99.90;;;;;;5032157;28;20041;-75
2021/12/01 04:17:04;;;;;;;8.18;3.30;;;9.20;99.90;;;;;;5032411;28;20389;-75
2021/12/01 04:19:30;;;;;;;4.65;2.75;;;9.20;99.90;;;;;;5022488;28;20120;-76
2021/12/01 04:21:56;;;;;;;5.40;2.90;;;9.20;99.90;;;;;;5047016;28;20099;-75
2021/12/01 04:24:22;;;;;;;7.20;3.20;;;9.20;99.90;;;;;;5031919;28;20041;-75
2021/12/01 04:26:47;;;;;;;3.83;2.72;;;9.20;99.90;;;;;;5032015;28;20401;-76
2021/12/01 04:29:13;;;;;;;3.90;2.50;;;9.10;99.90;;;;;;5017032;28;20425;-75
2021/12/01 04:31:40;;;;;;;3.78;2.70;;;9.20;99.90;;;;;;5036670;28;20409;-75
2021/12/01 04:34:06;;;;;;;4.32;2.80;;;9.10;99.90;;;;;;5015385;28;20048;-78
2021/12/01 04:36:35;;;;;;;5.35;2.90;;;9.10;99.90;;;;;;5031724;28;20064;-75
2021/12/01 04:39:03;;;;;;;5.25;2.85;;;9.10;99.90;;;;;;5031290;28;20034;-75
2021/12/01 04:41:36;;;;;;;5.57;3.10;;;9.10;99.90;;;;;;5036852;28;20041;-75
2021/12/01 04:44:04;;;;;;;4.28;3.35;;;9.10;99.90;;;;;;5051492;28;20041;-75
2021/12/01 04:46:31;;;;;;;4.65;3.38;;;9.10;99.90;;;;;;5051553;28;20086;-75
2021/12/01 04:48:56;;;;;;;4.43;3.42;;;9.10;99.90;;;;;;5049043;28;20041;-75
2021/12/01 04:51:22;;;;;;;5.78;3.55;;;9.00;99.90;;;;;;5050782;28;20385;-76
2021/12/01 04:53:47;;;;;;;5.32;3.85;;;9.00;99.90;;;;;;5027095;28;20475;-76
2021/12/01 04:56:15;;;;;;;6.13;4.32;;;9.00;99.90;;;;;;5031679;28;20041;-76
2021/12/01 04:58:41;;;;;;;4.72;3.88;;;9.00;99.90;;;;;;5031532;28;20167;-76
2021/12/01 05:01:07;;;;;;;5.25;4.22;;;9.00;99.90;;;;;;5019862;28;20049;-76
2021/12/01 05:03:32;;;;;;;6.28;4.10;;;9.00;99.90;;;;;;5051048;28;20041;-76
2021/12/01 05:05:58;;;;;;;5.88;4.75;;;9.00;99.90;;;;;;5051130;28;20098;-76
2021/12/01 05:08:23;;;;;;;5.95;4.43;;;8.90;99.90;;;;;;5041327;28;20041;-75
2021/12/01 05:10:50;;;;;;;6.60;4.38;;;8.90;99.90;;;;;;5014314;28;20034;-78
2021/12/01 05:13:16;;;;;;;4.93;4.43;;;8.90;99.90;;;;;;5031309;28;20049;-75
2021/12/01 05:15:41;;;;;;;6.18;4.53;;;8.90;99.90;;;;;;5031071;28;20421;-75
2021/12/01 05:18:08;;;;;;;5.05;4.53;;;8.90;99.90;;;;;;5031035;28;20416;-76
2021/12/01 05:20:35;;;;;;;5.97;4.78;;;8.90;99.90;;;;;;5032992;28;20045;-76
2021/12/01 05:23:00;;;;;;;6.38;4.90;;;8.90;99.90;;;;;;5030893;28;20124;-75
2021/12/01 05:25:26;;;;;;;5.35;4.85;;;8.80;99.90;;;;;;5032358;28;20149;-77
2021/12/01 05:27:51;;;;;;;7.55;4.95;;;8.80;99.90;;;;;;5031013;28;20473;-76
2021/12/01 05:30:19;;;;;;;6.82;5.28;;;8.90;99.90;;;;;;5036433;28;20057;-76
2021/12/01 05:32:44;;;;;;;6.40;5.22;;;8.80;99.90;;;;;;5030462;28;20073;-76
2021/12/01 05:35:10;;;;;;;5.85;4.97;;;8.80;99.90;;;;;;5030789;28;20099;-77
2021/12/01 05:37:36;;;;;;;5.80;4.68;;;8.80;99.90;;;;;;5030717;28;20045;-76
2021/12/01 05:40:01;;;;;;;5.80;4.80;;;8.70;99.90;;;;;;5030318;28;20048;-76
2021/12/01 05:42:27;;;;;;;5.80;4.60;;;8.80;99.90;;;;;;5030846;28;20128;-77
2021/12/01 05:44:53;;;;;;;4.93;4.05;;;8.70;99.90;;;;;;5030603;28;20049;-76
2021/12/01 05:47:18;;;;;;;5.00;4.15;;;8.70;99.90;;;;;;5030457;28;20129;-76
2021/12/01 05:49:44;;;;;;;4.50;3.42;;;8.70;99.90;;;;;;5037084;28;20091;-77
2021/12/01 05:52:12;;;;;;;4.32;3.60;;;8.70;99.90;;;;;;5030784;28;20067;-76
2021/12/01 05:54:37;;;;;;;4.40;2.85;;;8.70;99.90;;;;;;5034864;28;20076;-80
2021/12/01 05:57:04;;;;;;;3.90;2.72;;;8.60;99.90;;;;;;5014158;28;20076;-77
2021/12/01 05:59:30;;;;;;;3.60;2.72;;;8.60;99.90;;;;;;5021527;28;20037;-77
2021/12/01 06:01:55;;;;;;;3.72;2.30;;;8.60;99.90;;;;;;5030029;28;20060;-75
2021/12/01 06:04:24;;;;;;;2.75;2.30;;;8.60;99.90;;;;;;5030440;28;20038;-77
2021/12/01 06:06:50;;;;;;;2.72;2.17;;;8.50;99.90;;;;;;5017373;28;20033;-76
2021/12/01 06:09:16;;;;;;;3.28;2.33;;;8.50;99.90;;;;;;5048461;28;20046;-76
2021/12/01 06:11:42;;;;;;;2.53;2.20;;;8.50;99.90;;;;;;5030619;28;20103;-76
2021/12/01 06:14:08;;;;;;;3.70;2.55;;;8.50;99.90;;;;;;5030611;28;20038;-75
2021/12/01 06:16:34;;;;;;;3.30;1.80;;;8.50;99.90;;;;;;5030484;28;20049;-76
2021/12/01 06:18:59;;;;;;;2.67;2.20;;;8.50;99.90;;;;;;5015777;28;20544;-76
2021/12/01 06:21:25;;;;;;;2.33;1.98;;;8.50;99.90;;;;;;5035773;28;20511;-76
2021/12/01 06:23:50;;;;;;;2.40;1.88;;;8.40;99.90;;;;;;5036606;28;20049;-76
2021/12/01 06:26:16;;;;;;;3.47;2.47;;;8.40;99.90;;;;;;5050552;28;20090;-78
2021/12/01 06:28:42;;;;;;;2.10;1.90;;;8.40;99.90;;;;;;5036608;28;20522;-76
2021/12/01 06:31:08;;;;;;;2.28;2.08;;;8.40;99.90;;;;;;5036871;28;20558;-75
2021/12/01 06:33:33;;;;;;;2.40;2.20;;;8.40;99.90;;;;;;5033352;28;20053;-75
2021/12/01 06:35:59;;;;;;;2.67;2.13;;;8.40;99.90;;;;;;5017748;28;20040;-76
2021/12/01 06:38:25;;;;;;;2.75;2.30;;;8.40;99.90;;;;;;5017934;28;20417;-77
2021/12/01 06:40:51;;;;;;;3.10;2.28;;;8.40;99.90;;;;;;5024430;28;20041;-76
2021/12/01 06:43:16;;;;;;;5.57;2.50;;;8.40;99.90;;;;;;5033216;28;20052;-77
2021/12/01 06:45:42;;;;;;;2.78;2.40;;;8.40;99.90;;;;;;5033246;28;20048;-76
2021/12/01 06:48:08;;;;;;;3.05;2.50;;;8.40;99.90;;;;;;5033192;28;20037;-75
2021/12/01 06:50:33;;;;;;;3.55;2.67;;;8.40;99.90;;;;;;5025725;28;20048;-76
2021/12/01 06:52:59;;;;;;;3.33;2.60;;;8.40;99.90;;;;;;5036585;28;20085;-77
2021/12/01 06:55:25;;;;;;;2.80;2.42;;;8.30;99.90;;;;;;5036542;28;20557;-76
2021/12/01 06:57:50;;;;;;;3.83;2.78;;;8.30;99.90;;;;;;5053290;28;20043;-75
2021/12/01 07:00:18;;;;;;;3.30;2.75;;;8.30;99.90;;;;;;5045762;28;20033;-75
2021/12/01 07:02:44;;;;;;;4.28;2.60;;;8.30;99.90;;;;;;5033370;28;20630;-76
2021/12/01 07:05:11;;;;;;;4.13;2.90;;;8.30;99.90;;;;;;5034093;28;20120;-75
2021/12/01 07:07:37;;;;;;;3.97;3.08;;;8.30;99.90;;;;;;5033110;28;20115;-75
2021/12/01 07:10:09;;;;;;;4.35;3.22;;;8.30;99.90;;;;;;5035157;28;20528;-76
2021/12/01 07:12:35;;;;;;;3.85;3.17;;;8.30;99.90;;;;;;5033702;28;20087;-75
2021/12/01 07:15:02;;;;;;;4.25;3.10;;;8.30;99.90;;;;;;5039250;28;20457;-75
2021/12/01 07:17:27;;;;;;;3.60;2.95;;;8.30;99.90;;;;;;5047270;28;20040;-76
2021/12/01 07:19:53;;;;;;;5.15;3.75;;;8.30;99.90;;;;;;5022783;28;20056;-77
2021/12/01 07:22:19;;;;;;;5.57;4.13;;;8.30;99.90;;;;;;5045662;28;20539;-76
2021/12/01 07:24:44;;;;;;;5.80;4.43;;;8.30;99.90;;;;;;5036727;28;20064;-77
2021/12/01 07:27:11;;;;;;;5.03;4.10;;;8.30;99.90;;;;;;5047630;28;20042;-77
2021/12/01 07:29:36;;;;;;;4.65;4.00;;;8.40;99.90;;;;;;5045858;28;20029;-77
2021/12/01 07:32:04;;;;;;;6.35;4.53;;;8.30;99.90;;;;;;5039844;28;20033;-77
2021/12/01 07:34:30;;;;;;;6.50;4.60;;;8.30;99.90;;;;;;5056202;28;20123;-77
2021/12/01 07:36:55;;;;;;;5.78;4.05;;;8.30;99.90;;;;;;5048567;28;20119;-77
2021/12/01 07:39:21;;;;;;;5.18;4.13;;;8.30;99.90;;;;;;5019479;28;20047;-78
2021/12/01 07:41:48;;;;;;;5.40;3.50;;;8.30;99.90;;;;;;5048085;28;20044;-77
2021/12/01 07:44:14;;;;;;;5.85;4.55;;;8.40;99.90;;;;;;5037881;28;20041;-78
2021/12/01 07:46:39;;;;;;;5.18;3.95;;;8.40;99.90;;;;;;5039968;28;20039;-77
2021/12/01 07:49:05;;;;;;;5.15;4.00;;;8.40;99.90;;;;;;5033975;28;20033;-77
2021/12/01 07:51:31;;;;;;;5.35;4.32;;;8.40;99.90;;;;;;5030081;28;20079;-77
2021/12/01 07:53:57;;;;;;;6.05;4.55;;;8.40;99.90;;;;;;5036385;28;20048;-76
2021/12/01 07:56:23;;;;;;;5.13;4.55;;;8.40;99.90;;;;;;5040953;28;20029;-77
2021/12/01 07:58:48;;;;;;;5.95;4.50;;;8.40;99.90;;;;;;5035730;28;20068;-75
2021/12/01 08:01:14;;;;;;;5.38;4.47;;;8.40;99.90;;;;;;5031300;28;20086;-75
2021/12/01 08:03:39;;;;;;;6.72;5.07;;;8.40;99.90;;;;;;5043501;28;20420;-75
2021/12/01 08:06:05;;;;;;;7.65;5.20;;;8.40;99.90;;;;;;5035694;28;20045;-74
2021/12/01 08:08:30;;;;;;;6.18;4.68;;;8.50;99.90;;;;;;5035678;28;20040;-75
2021/12/01 08:10:56;;;;;;;8.00;5.65;;;8.50;99.90;;;;;;5035024;28;20519;-75
2021/12/01 08:13:22;;;;;;;7.07;5.45;;;8.50;99.90;;;;;;5044921;28;20471;-76
2021/12/01 08:15:48;;;;;;;7.40;5.35;;;8.50;99.90;;;;;;5034722;28;20052;-77
2021/12/01 08:18:15;;;;;;;6.93;5.03;;;8.50;99.90;;;;;;5036482;28;20041;-79
2021/12/01 08:20:40;;;;;;;7.30;4.80;;;8.50;99.90;;;;;;5034964;28;20495;-77
2021/12/01 08:23:06;;;;;;;5.97;5.22;;;8.60;99.90;;;;;;5018806;28;20127;-77
2021/12/01 08:25:31;;;;;;;7.43;5.28;;;8.60;99.90;;;;;;5032190;28;20037;-76
2021/12/01 08:27:59;;;;;;;9.70;5.18;;;8.60;99.90;;;;;;5022782;28;20123;-76
2021/12/01 08:30:25;;;;;;;6.97;4.90;;;8.60;99.90;;;;;;5054806;28;20040;-76
2021/12/01 08:32:52;;;;;;;8.35;5.53;;;8.60;99.90;;;;;;5055082;28;20036;-76
2021/12/01 08:35:18;;;;;;;9.50;5.88;;;8.60;99.90;;;;;;5051473;28;20076;-77
2021/12/01 08:37:43;;;;;;;9.07;5.70;;;8.60;99.90;;;;;;5026894;28;20493;-76
2021/12/01 08:40:13;;;;;;;9.80;6.05;;;8.60;99.90;;;;;;5046903;28;20068;-77
2021/12/01 08:42:38;;;;;;;7.68;6.00;;;8.60;99.90;;;;;;5047963;28;20032;-77
2021/12/01 08:45:05;;;;;;;10.55;5.60;;;8.60;99.90;;;;;;5042315;28;20481;-77
2021/12/01 08:47:31;;;;;;;6.68;5.50;;;8.60;99.90;;;;;;5056082;28;20091;-76
2021/12/01 08:49:57;;;;;;;9.60;5.20;;;8.60;99.90;;;;;;5018027;28;20083;-77
2021/12/01 08:52:23;;;;;;;6.18;5.07;;;8.60;99.90;;;;;;5022772;28;20216;-75
2021/12/01 08:54:49;;;;;;;10.77;4.80;;;8.60;99.90;;;;;;5034882;28;20037;-76
2021/12/01 08:57:15;;;;;;;8.38;3.83;;;8.60;99.90;;;;;;5034906;28;20041;-75
2021/12/01 08:59:40;;;;;;;8.85;3.85;;;8.60;99.90;;;;;;5034455;28;20045;-80
2021/12/01 09:02:06;;;;;;;7.30;2.97;;;8.60;99.90;;;;;;5035442;28;20037;-80
2021/12/01 09:04:32;;;;;;;8.05;3.00;;;8.60;99.90;;;;;;5017965;28;20033;-81
2021/12/01 09:06:57;;;;;;;10.52;2.60;;;8.50;99.90;;;;;;5053367;28;20116;-80
2021/12/01 09:09:23;;;;;;;11.77;2.28;;;8.40;99.90;;;;;;5037488;28;20028;-81
2021/12/01 09:11:51;;;;;;;10.65;2.63;;;8.40;99.90;;;;;;5037265;28;20039;-80
2021/12/01 09:14:19;;;;;;;8.35;1.92;;;8.30;99.90;;;;;;5038042;28;20036;-81
2021/12/01 09:16:46;;;;;;;10.20;2.30;;;8.30;99.90;;;;;;5050274;28;20070;-79
2021/12/01 09:19:13;;;;;;;6.20;2.00;;;8.20;99.90;;;;;;5059455;22;20037;-76
2021/12/01 09:21:55;;;;;;;7.88;2.22;;;8.20;99.90;;;;;;4993853;28;20056;-80
2021/12/01 09:24:21;;;;;;;6.43;1.88;;;8.20;99.90;;;;;;4982400;28;20056;-75
2021/12/01 09:26:48;;;;;;;10.55;2.08;;;8.30;99.90;;;;;;4997256;28;20489;-76
2021/12/01 09:29:14;;;;;;;10.07;2.35;;;8.50;99.90;;;;;;4994973;28;20044;-76
2021/12/01 09:31:40;;;;;;;10.63;1.80;;;8.40;99.90;;;;;;4977384;28;20077;-76
2021/12/01 09:34:06;;;;;;;8.95;1.50;;;8.50;99.90;;;;;;4978185;28;20077;-76
2021/12/01 09:36:35;;;;;;;10.82;1.73;;;8.50;99.90;;;;;;4977739;28;20504;-76
2021/12/01 09:39:03;;;;;;;9.52;1.70;;;8.50;99.90;;;;;;4978488;28;20037;-76
2021/12/01 09:41:29;;;;;;;9.15;1.73;;;8.40;99.90;;;;;;4978606;28;20077;-76
2021/12/01 09:43:57;;;;;;;8.13;1.58;;;8.40;99.90;;;;;;4978145;28;20509;-76
2021/12/01 09:46:24;;;;;;;8.68;1.60;;;8.40;99.90;;;;;;4978218;28;20041;-76
2021/12/01 09:48:52;;;;;;;8.98;1.13;;;8.50;99.90;;;;;;4978530;28;20038;-75
2021/12/01 09:51:18;;;;;;;5.72;1.13;;;8.40;99.90;;;;;;4972457;28;20030;-76
2021/12/01 09:53:45;;;;;;;7.80;1.10;;;8.40;99.90;;;;;;4975554;28;20128;-76
2021/12/01 09:56:13;;;;;;;7.57;1.10;;;8.40;99.90;;;;;;4994374;28;20073;-75
2021/12/01 09:58:41;;;;;;;11.07;1.17;;;8.40;99.90;;;;;;4977743;28;20157;-77
2021/12/01 10:01:16;;;;;;;7.13;1.27;;;8.30;99.90;;;;;;4977443;28;20465;-76
2021/12/01 10:03:43;;;;;;;8.65;1.60;;;8.40;99.90;;;;;;4987024;28;20041;-76
2021/12/01 10:06:44;;;;;;;6.38;1.05;;;8.40;99.90;;;;;;5006633;28;20047;-75
2021/12/01 10:09:16;;;;;;;7.07;1.10;;;8.40;99.90;;;;;;5001530;28;20043;-76
2021/12/01 10:12:08;;;;;;;8.95;1.30;;;8.40;99.90;;;;;;5007249;28;20038;-76
2021/12/01 10:14:37;;;;;;;8.75;1.10;;;8.40;99.90;;;;;;4984571;28;20050;-76
2021/12/01 10:17:16;;;;;;;8.80;1.10;;;8.40;99.90;;;;;;4999353;28;20582;-75
2021/12/01 10:20:10;;;;;;;7.38;1.83;;;8.40;99.90;;;;;;4985878;28;20062;-76
2021/12/01 10:23:07;;;;;;;7.63;1.08;;;8.50;99.90;;;;;;5017775;28;20050;-75
2021/12/01 10:25:58;;;;;;;10.50;1.30;;;8.60;99.90;;;;;;5007516;28;20094;-75
2021/12/01 10:28:39;;;;;;;8.82;1.15;;;8.70;99.90;;;;;;4989616;28;20056;-76
2021/12/01 10:31:13;;;;;;;11.15;1.30;;;8.70;99.90;;;;;;4989885;28;20046;-76
2021/12/01 10:33:42;;;;;;;12.85;1.25;;;8.80;99.90;;;;;;4990246;28;20136;-75
2021/12/01 10:36:19;;;;;;;9.13;1.27;;;9.00;99.90;;;;;;4991828;28;20352;-76
2021/12/01 10:39:02;;;;;;;9.23;1.60;;;9.00;99.90;;;;;;4989448;28;20313;-76
2021/12/01 10:41:36;;;;;;;8.50;1.10;;;8.90;99.90;;;;;;5006206;28;20042;-75
2021/12/01 10:44:14;;;;;;;10.60;1.73;;;8.90;99.90;;;;;;5004147;28;20044;-76
2021/12/01 10:46:53;;;;;;;7.88;1.48;;;8.90;99.90;;;;;;4993214;28;20046;-75
2021/12/01 10:49:38;;;;;;;13.57;1.48;;;9.00;99.90;;;;;;5009256;28;20053;-76
2021/12/01 10:52:34;;;;;;;9.73;1.23;;;9.00;99.90;;;;;;4993346;28;20076;-76
2021/12/01 10:55:17;;;;;;;9.20;1.38;;;8.90;99.90;;;;;;4990557;28;20081;-76
2021/12/01 10:57:47;;;;;;;9.77;1.30;;;9.00;99.90;;;;;;4992250;28;20050;-75
2021/12/01 11:00:28;;;;;;;11.90;1.70;;;9.00;99.90;;;;;;5007974;28;20688;-75
2021/12/01 11:03:12;;;;;;;6.63;1.20;;;9.00;99.90;;;;;;4990611;28;20049;-77
2021/12/01 11:05:42;;;;;;;13.82;1.65;;;9.20;99.90;;;;;;5007344;28;20050;-76
2021/12/01 11:08:13;;;;;;;12.82;1.80;;;9.10;99.90;;;;;;4993231;28;20572;-77
2021/12/01 11:10:47;;;;;;;11.13;1.67;;;9.10;99.90;;;;;;5007942;28;20103;-76
2021/12/01 11:13:19;;;;;;;11.18;1.50;;;9.10;99.90;;;;;;5011474;28;20066;-76
2021/12/01 11:15:59;;;;;;;9.90;1.75;;;9.10;99.90;;;;;;4996619;28;20061;-77
2021/12/01 11:18:33;;;;;;;17.55;2.20;;;9.10;99.90;;;;;;4995136;28;20038;-76
2021/12/01 11:21:08;;;;;;;9.82;1.75;;;9.10;99.90;;;;;;4994005;28;20042;-76
2021/12/01 11:23:39;;;;;;;11.30;2.05;;;9.10;99.90;;;;;;4993540;28;20033;-76
2021/12/01 11:26:42;;;;;;;11.00;2.05;;;9.10;99.90;;;;;;4986396;28;20034;-75
2021/12/01 11:29:12;;;;;;;11.95;1.88;;;9.10;99.90;;;;;;5001569;28;20050;-77
2021/12/01 11:31:43;;;;;;;13.65;1.75;;;9.00;99.90;;;;;;5016821;28;20409;-76
2021/12/01 11:34:17;;;;;;;10.00;2.00;;;9.00;99.90;;;;;;4997692;28;20049;-75
2021/12/01 11:36:49;;;;;;;10.60;1.98;;;9.00;99.90;;;;;;4980679;28;20038;-75
2021/12/01 11:39:20;;;;;;;14.15;2.30;;;8.90;99.90;;;;;;4996778;28;20034;-76
2021/12/01 11:41:51;;;;;;;12.18;2.15;;;8.90;99.90;;;;;;5012545;28;20050;-75
2021/12/01 11:44:18;;;;;;;13.18;1.90;;;8.80;99.90;;;;;;4980407;28;20050;-75
2021/12/01 11:46:44;;;;;;;15.02;3.05;;;8.70;99.90;;;;;;4980026;28;20054;-75
2021/12/01 11:49:12;;;;;;;18.17;2.30;;;8.70;99.90;;;;;;5012726;28;20069;-76
2021/12/01 11:51:44;;;;;;;13.75;2.25;;;8.80;99.90;;;;;;5013148;28;20026;-75
2021/12/01 11:54:23;;;;;;;12.00;2.33;;;8.80;99.90;;;;;;4980557;28;20045;-75
2021/12/01 11:56:57;;;;;;;10.52;2.33;;;8.80;99.90;;;;;;4980196;28;20179;-75
2021/12/01 11:59:27;;;;;;;9.63;2.25;;;8.90;99.90;;;;;;4979582;28;20049;-75
2021/12/01 12:01:58;;;;;;;10.45;2.13;;;8.90;99.90;;;;;;5012777;28;20551;-76
2021/12/01 12:04:50;;;;;;;15.57;2.20;;;8.90;99.90;;;;;;5004378;28;20530;-76
2021/12/01 12:07:26;;;;;;;12.57;2.25;;;8.80;99.90;;;;;;4952742;28;20521;-76
2021/12/01 12:10:16;;;;;;;12.07;2.08;;;8.70;99.90;;;;;;4980022;28;20045;-77
2021/12/01 12:13:05;;;;;;;12.05;2.10;;;8.60;99.90;;;;;;4982300;28;20070;-77
2021/12/01 12:15:50;;;;;;;11.38;1.90;;;8.60;99.90;;;;;;4988941;28;20038;-76
2021/12/01 12:18:35;;;;;;;12.18;2.40;;;8.70;99.90;;;;;;4972437;28;20061;-79
2021/12/01 12:21:18;;;;;;;13.25;2.22;;;8.60;99.90;;;;;;4974594;28;20125;-78
2021/12/01 12:24:24;;;;;;;16.33;2.40;;;8.70;99.90;;;;;;5006884;28;20058;-80
2021/12/01 12:27:47;;;;;;;17.73;2.58;;;8.70;99.90;;;;;;4962485;28;20046;-80
2021/12/01 12:30:37;;;;;;;10.82;2.05;;;8.70;99.90;;;;;;4956292;28;20051;-78
2021/12/01 12:33:50;;;;;;;18.02;2.45;;;8.60;99.90;;;;;;4956469;28;20058;-78
2021/12/01 12:36:50;;;;;;;12.27;1.90;;;8.60;99.90;;;;;;4979191;28;20039;-80
2021/12/01 12:39:23;;;;;;;15.57;2.40;;;8.50;99.90;;;;;;4979289;28;20046;-77
2021/12/01 12:42:13;;;;;;;17.42;3.28;;;8.50;99.90;;;;;;5015836;28;20480;-82
2021/12/01 12:45:20;;;;;;;8.48;2.13;;;8.40;99.90;;;;;;4963916;28;20101;-81
2021/12/01 12:47:59;;;;;;;14.60;2.30;;;8.50;99.90;;;;;;4978462;28;20053;-80
2021/12/01 12:51:01;;;;;;;12.70;2.25;;;8.40;99.90;;;;;;4960029;28;20046;-76
2021/12/01 12:53:32;;;;;;;13.85;2.30;;;8.50;99.90;;;;;;4975560;28;20046;-78
2021/12/01 12:56:25;;;;;;;14.02;2.35;;;8.50;99.90;;;;;;4988491;28;20092;-76
2021/12/01 12:59:23;;;;;;;14.50;2.85;;;8.40;99.90;;;;;;5014991;28;20044;-76
2021/12/01 13:01:56;;;;;;;12.90;2.78;;;8.30;99.90;;;;;;4987641;28;20454;-76
2021/12/01 13:05:08;;;;;;;14.63;2.00;;;8.30;99.90;;;;;;4994912;28;20034;-77
2021/12/01 13:07:51;;;;;;;13.27;1.98;;;8.20;99.90;;;;;;5027213;28;20050;-75
2021/12/01 13:10:29;;;;;;;14.52;1.77;;;8.20;99.90;;;;;;4993100;28;20113;-78